sensor_id;sensor_type;location;lat;lon;timestamp;pressure;altitude;pressure_sealevel;temperature;humidity
64460;BME280;50828;53.756;21.140;2022-09-25T00:03:47;99825.36;;;6.05;70.53
64460;BME280;50828;53.756;21.140;2022-09-25T00:08:55;99822.27;;;6.03;70.61
64460;BME280;50828;53.756;21.140;2022-09-25T00:14:04;99822.80;;;6.03;70.95
64460;BME280;50828;53.756;21.140;2022-09-25T00:19:19;99819.59;;;6.05;71.01
64460;BME280;50828;53.756;21.140;2022-09-25T00:24:44;99809.27;;;6.06;71.16
64460;BME280;50828;53.756;21.140;2022-09-25T00:29:51;99812.66;;;6.10;71.30
64460;BME280;50828;53.756;21.140;2022-09-25T00:34:58;99809.46;;;6.12;71.61
64460;BME280;50828;53.756;21.140;2022-09-25T00:40:07;99813.41;;;6.14;71.45
64460;BME280;50828;53.756;21.140;2022-09-25T00:45:17;99807.10;;;6.15;71.82
64460;BME280;50828;53.756;21.140;2022-09-25T00:50:29;99806.64;;;6.19;71.70
64460;BME280;50828;53.756;21.140;2022-09-25T00:55:39;99801.70;;;6.20;71.64
64460;BME280;50828;53.756;21.140;2022-09-25T01:00:47;99801.02;;;6.20;71.72
64460;BME280;50828;53.756;21.140;2022-09-25T01:05:55;99799.76;;;6.21;71.54
64460;BME280;50828;53.756;21.140;2022-09-25T01:11:05;99796.79;;;6.21;71.65
64460;BME280;50828;53.756;21.140;2022-09-25T01:16:15;99791.73;;;6.20;71.62
64460;BME280;50828;53.756;21.140;2022-09-25T01:21:38;99790.91;;;6.19;71.49
64460;BME280;50828;53.756;21.140;2022-09-25T01:32:21;99792.58;;;6.15;71.64
64460;BME280;50828;53.756;21.140;2022-09-25T01:37:35;99785.84;;;6.12;71.38
64460;BME280;50828;53.756;21.140;2022-09-25T01:42:47;99781.52;;;6.10;71.71
64460;BME280;50828;53.756;21.140;2022-09-25T01:47:55;99782.09;;;6.08;71.66
64460;BME280;50828;53.756;21.140;2022-09-25T01:53:08;99780.61;;;6.05;71.61
64460;BME280;50828;53.756;21.140;2022-09-25T01:58:21;99778.96;;;6.01;71.56
64460;BME280;50828;53.756;21.140;2022-09-25T02:03:33;99781.84;;;5.98;71.58
64460;BME280;50828;53.756;21.140;2022-09-25T02:08:45;99777.03;;;5.94;71.35
64460;BME280;50828;53.756;21.140;2022-09-25T02:13:58;99780.09;;;5.90;71.34
64460;BME280;50828;53.756;21.140;2022-09-25T02:19:08;99777.93;;;5.86;71.35
64460;BME280;50828;53.756;21.140;2022-09-25T02:24:37;99774.76;;;5.80;71.49
64460;BME280;50828;53.756;21.140;2022-09-25T02:29:46;99763.78;;;5.73;71.41
64460;BME280;50828;53.756;21.140;2022-09-25T02:34:54;99756.42;;;5.66;71.31
64460;BME280;50828;53.756;21.140;2022-09-25T02:40:02;99754.63;;;5.62;71.39
64460;BME280;50828;53.756;21.140;2022-09-25T02:45:22;99754.72;;;5.58;71.52
64460;BME280;50828;53.756;21.140;2022-09-25T02:50:40;99757.61;;;5.54;71.55
64460;BME280;50828;53.756;21.140;2022-09-25T02:55:54;99755.44;;;5.50;71.65
64460;BME280;50828;53.756;21.140;2022-09-25T03:01:05;99737.56;;;5.39;71.63
64460;BME280;50828;53.756;21.140;2022-09-25T03:06:14;99753.33;;;5.50;71.91
64460;BME280;50828;53.756;21.140;2022-09-25T03:11:22;99748.95;;;5.51;71.85
64460;BME280;50828;53.756;21.140;2022-09-25T03:16:35;99747.88;;;5.53;72.04
64460;BME280;50828;53.756;21.140;2022-09-25T03:21:45;99747.98;;;5.55;72.31
64460;BME280;50828;53.756;21.140;2022-09-25T03:26:52;99746.75;;;5.55;72.25
64460;BME280;50828;53.756;21.140;2022-09-25T03:31:59;99746.05;;;5.56;72.21
64460;BME280;50828;53.756;21.140;2022-09-25T03:37:07;99744.92;;;5.58;72.14
64460;BME280;50828;53.756;21.140;2022-09-25T03:42:14;99739.66;;;5.59;72.35
64460;BME280;50828;53.756;21.140;2022-09-25T03:47:21;99737.05;;;5.59;72.21
64460;BME280;50828;53.756;21.140;2022-09-25T03:52:28;99738.92;;;5.61;72.38
64460;BME280;50828;53.756;21.140;2022-09-25T03:57:35;99737.56;;;5.59;72.54
64460;BME280;50828;53.756;21.140;2022-09-25T04:02:43;99738.94;;;5.60;72.28
64460;BME280;50828;53.756;21.140;2022-09-25T04:07:50;99739.49;;;5.59;72.19
64460;BME280;50828;53.756;21.140;2022-09-25T04:12:57;99741.30;;;5.57;72.15
64460;BME280;50828;53.756;21.140;2022-09-25T04:18:04;99741.38;;;5.54;72.11
64460;BME280;50828;53.756;21.140;2022-09-25T04:23:11;99739.52;;;5.51;72.24
64460;BME280;50828;53.756;21.140;2022-09-25T04:28:18;99736.61;;;5.49;72.04
64460;BME280;50828;53.756;21.140;2022-09-25T04:33:26;99738.94;;;5.46;72.35
64460;BME280;50828;53.756;21.140;2022-09-25T04:38:53;99737.76;;;5.45;72.44
64460;BME280;50828;53.756;21.140;2022-09-25T04:44:00;99734.30;;;5.44;72.39
64460;BME280;50828;53.756;21.140;2022-09-25T04:49:09;99732.35;;;5.45;72.43
64460;BME280;50828;53.756;21.140;2022-09-25T04:54:17;99733.52;;;5.46;72.75
64460;BME280;50828;53.756;21.140;2022-09-25T04:59:24;99734.50;;;5.49;72.90
64460;BME280;50828;53.756;21.140;2022-09-25T05:04:31;99736.17;;;5.52;72.89
64460;BME280;50828;53.756;21.140;2022-09-25T05:09:38;99738.88;;;5.56;73.00
64460;BME280;50828;53.756;21.140;2022-09-25T05:14:45;99745.23;;;5.61;72.99
64460;BME280;50828;53.756;21.140;2022-09-25T05:19:52;99749.44;;;5.66;73.27
64460;BME280;50828;53.756;21.140;2022-09-25T05:24:59;99752.42;;;5.73;73.31
64460;BME280;50828;53.756;21.140;2022-09-25T05:30:09;99758.52;;;5.80;73.24
64460;BME280;50828;53.756;21.140;2022-09-25T05:35:17;99756.95;;;5.86;73.13
64460;BME280;50828;53.756;21.140;2022-09-25T05:40:24;99760.09;;;5.94;73.25
64460;BME280;50828;53.756;21.140;2022-09-25T05:45:32;99757.43;;;6.02;73.30
64460;BME280;50828;53.756;21.140;2022-09-25T05:50:39;99753.21;;;6.10;73.46
64460;BME280;50828;53.756;21.140;2022-09-25T05:55:51;99756.65;;;6.19;73.45
64460;BME280;50828;53.756;21.140;2022-09-25T06:01:00;99750.16;;;6.25;73.39
64460;BME280;50828;53.756;21.140;2022-09-25T06:06:08;99753.38;;;6.35;73.40
64460;BME280;50828;53.756;21.140;2022-09-25T06:11:15;99755.21;;;6.44;73.47
64460;BME280;50828;53.756;21.140;2022-09-25T06:16:22;99760.31;;;6.55;73.39
64460;BME280;50828;53.756;21.140;2022-09-25T06:21:29;99752.00;;;6.64;73.20
64460;BME280;50828;53.756;21.140;2022-09-25T06:26:37;99755.62;;;6.78;73.22
64460;BME280;50828;53.756;21.140;2022-09-25T06:31:45;99750.91;;;6.89;73.36
64460;BME280;50828;53.756;21.140;2022-09-25T06:36:52;99749.16;;;7.01;73.41
64460;BME280;50828;53.756;21.140;2022-09-25T06:41:59;99747.41;;;7.11;73.52
64460;BME280;50828;53.756;21.140;2022-09-25T06:47:08;99746.74;;;7.22;73.45
64460;BME280;50828;53.756;21.140;2022-09-25T06:52:22;99748.89;;;7.31;73.57
64460;BME280;50828;53.756;21.140;2022-09-25T06:57:29;99754.05;;;7.39;73.67
